Time;durP1;ratioP1;P1;durP2;ratioP2;P2;SDS_P1;SDS_P2;PMS_P1;PMS_P2;Temp;Humidity;BMP_temperature;BMP_pressure;BME280_temperature;BME280_humidity;BME280_pressure;Samples;Min_cycle;Max_cycle;Signal;HPM_P1;HPM_P2
2023/04/26 00:00:32;;;;;;;3.60;2.63;;;16.20;52.10;;;;;;5072335;28;20258;-61
2023/04/26 00:03:02;;;;;;;4.50;2.28;;;16.20;52.10;;;;;;5072378;28;20189;-62
2023/04/26 00:05:28;;;;;;;4.63;2.40;;;16.20;52.20;;;;;;5071281;28;20656;-61
2023/04/26 00:07:53;;;;;;;5.25;2.45;;;16.20;52.10;;;;;;5073224;28;20187;-61
2023/04/26 00:10:19;;;;;;;2.83;2.17;;;16.20;52.10;;;;;;5075884;28;20181;-61
2023/04/26 00:12:44;;;;;;;4.68;2.58;;;16.20;52.00;;;;;;5076037;28;20699;-60
2023/04/26 00:15:10;;;;;;;3.95;2.65;;;16.20;52.00;;;;;;5076125;28;20282;-61
2023/04/26 00:17:36;;;;;;;3.80;2.50;;;16.10;51.90;;;;;;5075419;28;20571;-61
2023/04/26 00:20:03;;;;;;;3.75;2.40;;;16.10;51.90;;;;;;5076291;28;20197;-61
2023/04/26 00:22:29;;;;;;;2.92;2.20;;;16.10;51.90;;;;;;5075760;28;20194;-60
2023/04/26 00:24:54;;;;;;;5.30;2.75;;;16.10;51.90;;;;;;5075190;28;20756;-61
2023/04/26 00:27:20;;;;;;;4.93;2.08;;;16.10;51.90;;;;;;5075576;28;20609;-61
2023/04/26 00:29:46;;;;;;;4.03;2.10;;;16.10;51.90;;;;;;5076006;28;20182;-61
2023/04/26 00:32:11;;;;;;;4.53;2.20;;;16.10;51.90;;;;;;5074952;28;20174;-62
2023/04/26 00:34:37;;;;;;;6.03;2.75;;;16.10;51.90;;;;;;5075825;28;20201;-62
2023/04/26 00:37:03;;;;;;;5.00;2.58;;;16.00;51.80;;;;;;5075602;28;20271;-61
2023/04/26 00:39:29;;;;;;;3.55;2.25;;;16.00;51.80;;;;;;5074923;28;20205;-61
2023/04/26 00:41:54;;;;;;;4.20;2.45;;;16.00;51.70;;;;;;5075951;28;20190;-61
2023/04/26 00:44:20;;;;;;;2.88;2.08;;;16.00;51.70;;;;;;5075247;28;20647;-62
2023/04/26 00:46:45;;;;;;;3.75;2.50;;;16.00;51.80;;;;;;5074894;28;20182;-61
2023/04/26 00:49:14;;;;;;;3.10;2.38;;;16.00;51.70;;;;;;5074166;28;20179;-61
2023/04/26 00:51:39;;;;;;;2.80;2.33;;;16.00;51.70;;;;;;5074188;28;20272;-61
2023/04/26 00:54:05;;;;;;;3.15;2.10;;;15.90;51.60;;;;;;5073490;28;20643;-61
2023/04/26 00:56:30;;;;;;;3.45;2.53;;;15.90;51.70;;;;;;5074298;28;20565;-61
2023/04/26 00:58:56;;;;;;;3.28;2.70;;;15.90;51.60;;;;;;5074414;28;20177;-61
2023/04/26 01:01:21;;;;;;;3.30;2.25;;;16.00;51.70;;;;;;5074379;28;20259;-61
2023/04/26 01:03:47;;;;;;;4.03;2.78;;;15.90;51.60;;;;;;5075451;28;20250;-62
2023/04/26 01:06:13;;;;;;;3.42;2.47;;;15.90;51.60;;;;;;5074982;28;20178;-61
2023/04/26 01:08:38;;;;;;;4.53;2.30;;;15.90;51.60;;;;;;5073402;28;20174;-61
2023/04/26 01:11:04;;;;;;;3.35;2.45;;;15.90;51.50;;;;;;5075275;28;20178;-61
2023/04/26 01:13:31;;;;;;;4.57;2.97;;;15.90;51.50;;;;;;5074092;28;20641;-61
2023/04/26 01:15:56;;;;;;;6.95;2.53;;;15.90;51.60;;;;;;5074402;28;20209;-61
2023/04/26 01:18:22;;;;;;;3.67;2.70;;;15.90;51.50;;;;;;5073523;28;20241;-60
2023/04/26 01:20:48;;;;;;;4.75;2.60;;;15.80;51.50;;;;;;5073298;28;20577;-60
2023/04/26 01:23:13;;;;;;;5.82;2.53;;;15.80;51.50;;;;;;5074733;28;20188;-60
2023/04/26 01:25:39;;;;;;;4.75;2.78;;;15.80;51.50;;;;;;5074769;28;20222;-61
2023/04/26 01:28:04;;;;;;;3.92;2.60;;;15.80;51.50;;;;;;5072645;28;20178;-61
2023/04/26 01:30:30;;;;;;;5.15;2.83;;;15.80;51.50;;;;;;5074881;28;20171;-61
2023/04/26 01:32:55;;;;;;;3.65;2.75;;;15.80;51.50;;;;;;5074932;28;20186;-62
2023/04/26 01:35:21;;;;;;;5.13;2.67;;;15.80;51.50;;;;;;5073726;28;20173;-61
2023/04/26 01:37:47;;;;;;;5.00;2.95;;;15.80;51.40;;;;;;5074520;28;20259;-61
2023/04/26 01:40:12;;;;;;;5.07;2.78;;;15.70;51.40;;;;;;5074386;28;20171;-61
2023/04/26 01:42:38;;;;;;;2.60;2.17;;;15.80;51.50;;;;;;5073801;28;20174;-61
2023/04/26 01:45:04;;;;;;;6.30;2.83;;;15.70;51.40;;;;;;5074334;28;20178;-61
2023/04/26 01:47:29;;;;;;;3.28;2.63;;;15.70;51.30;;;;;;5074464;28;20174;-61
2023/04/26 01:49:55;;;;;;;4.93;2.70;;;15.70;51.30;;;;;;5073612;28;20588;-60
2023/04/26 01:52:21;;;;;;;2.85;2.40;;;15.70;51.40;;;;;;5074563;28;20657;-61
2023/04/26 01:54:47;;;;;;;2.83;2.60;;;15.70;51.30;;;;;;5074575;28;20248;-61
2023/04/26 01:57:12;;;;;;;3.03;2.40;;;15.60;51.20;;;;;;5073201;28;20255;-60
2023/04/26 01:59:38;;;;;;;3.65;2.63;;;15.70;51.30;;;;;;5074237;28;20224;-61
2023/04/26 02:02:04;;;;;;;4.68;2.38;;;15.70;51.30;;;;;;5074176;28;20178;-61
2023/04/26 02:04:29;;;;;;;3.90;2.40;;;15.60;51.20;;;;;;5073111;28;20170;-61
2023/04/26 02:06:56;;;;;;;3.38;2.67;;;15.70;51.30;;;;;;5074285;28;20184;-61
2023/04/26 02:09:21;;;;;;;3.88;2.50;;;15.60;51.20;;;;;;5073957;28;20261;-60
2023/04/26 02:11:47;;;;;;;3.08;2.50;;;15.60;51.20;;;;;;5073358;28;20261;-60
2023/04/26 02:14:12;;;;;;;2.95;2.55;;;15.60;51.20;;;;;;5073990;28;20257;-62
2023/04/26 02:16:39;;;;;;;3.50;2.70;;;15.60;51.20;;;;;;5073810;28;20281;-60
2023/04/26 02:19:09;;;;;;;4.55;2.75;;;15.60;51.20;;;;;;5072736;28;20183;-60
2023/04/26 02:21:50;;;;;;;4.38;2.42;;;15.60;51.20;;;;;;5074064;28;20252;-61
2023/04/26 02:24:15;;;;;;;3.78;2.33;;;15.60;51.20;;;;;;5072723;28;20222;-61
2023/04/26 02:26:41;;;;;;;5.47;2.70;;;15.60;51.20;;;;;;5073837;28;20170;-60
2023/04/26 02:29:06;;;;;;;4.80;2.95;;;15.50;51.20;;;;;;5073240;28;20543;-62
2023/04/26 02:31:32;;;;;;;3.05;2.72;;;15.50;51.10;;;;;;5072818;28;20649;-62
2023/04/26 02:33:57;;;;;;;5.03;2.45;;;15.50;51.20;;;;;;5073488;28;20181;-62
2023/04/26 02:36:23;;;;;;;3.75;2.70;;;15.50;51.10;;;;;;5073237;28;20249;-61
2023/04/26 02:38:48;;;;;;;3.53;2.55;;;15.50;51.20;;;;;;5072937;28;20178;-61
2023/04/26 02:41:14;;;;;;;3.55;2.60;;;15.50;51.20;;;;;;5073180;28;20186;-61
2023/04/26 02:43:39;;;;;;;4.18;2.38;;;15.50;51.20;;;;;;5073377;28;20174;-61
2023/04/26 02:46:08;;;;;;;3.72;2.50;;;15.40;51.20;;;;;;5072410;28;20174;-61
2023/04/26 02:48:34;;;;;;;3.35;2.50;;;15.50;51.20;;;;;;5073455;28;20174;-61
2023/04/26 02:50:59;;;;;;;2.88;2.55;;;15.40;51.10;;;;;;5073476;28;20170;-61
2023/04/26 02:53:25;;;;;;;3.67;2.50;;;15.50;51.10;;;;;;5072265;28;20174;-61
2023/04/26 02:55:51;;;;;;;2.72;2.13;;;15.40;51.10;;;;;;5073145;28;20670;-61
2023/04/26 02:58:17;;;;;;;2.72;2.50;;;15.40;51.00;;;;;;5072934;28;20206;-62
2023/04/26 03:00:46;;;;;;;2.90;2.35;;;15.40;51.00;;;;;;5072365;28;20167;-61
2023/04/26 03:03:12;;;;;;;4.35;2.55;;;15.40;51.00;;;;;;5072952;28;20178;-61
2023/04/26 03:05:37;;;;;;;2.88;2.33;;;15.40;51.00;;;;;;5073167;28;20177;-62
2023/04/26 03:08:03;;;;;;;3.90;2.70;;;15.40;51.00;;;;;;5072389;28;20170;-61
2023/04/26 03:10:29;;;;;;;3.20;2.72;;;15.40;51.10;;;;;;5072679;28;20209;-61
2023/04/26 03:12:54;;;;;;;2.88;2.63;;;15.40;51.60;;;;;;5073044;28;20217;-61
2023/04/26 03:15:20;;;;;;;3.30;2.35;;;15.30;51.00;;;;;;5071594;28;20174;-62
2023/04/26 03:17:45;;;;;;;4.30;2.78;;;15.30;51.00;;;;;;5072711;28;20680;-61
2023/04/26 03:20:11;;;;;;;3.72;2.92;;;15.30;51.00;;;;;;5072692;28;20672;-61
2023/04/26 03:22:36;;;;;;;3.10;2.75;;;15.30;51.00;;;;;;5072546;28;20550;-61
2023/04/26 03:25:02;;;;;;;2.67;2.47;;;15.30;51.00;;;;;;5072488;28;20729;-61
2023/04/26 03:27:28;;;;;;;3.60;2.75;;;15.30;51.00;;;;;;5071695;28;20186;-61
2023/04/26 03:29:53;;;;;;;4.03;2.80;;;15.30;51.00;;;;;;5072682;28;20181;-62
2023/04/26 03:32:19;;;;;;;2.95;2.33;;;15.30;50.90;;;;;;5072748;28;20272;-62
2023/04/26 03:34:46;;;;;;;3.20;2.63;;;15.30;50.90;;;;;;5071958;28;20170;-61
2023/04/26 03:37:12;;;;;;;4.63;3.22;;;15.30;50.80;;;;;;5072471;28;20244;-61
2023/04/26 03:39:37;;;;;;;4.03;2.60;;;15.20;50.70;;;;;;5072718;28;20583;-61
2023/04/26 03:42:03;;;;;;;3.72;3.25;;;15.20;50.90;;;;;;5072303;28;20174;-61
2023/04/26 03:44:28;;;;;;;2.60;2.40;;;15.30;50.80;;;;;;5078712;28;20181;-61
2023/04/26 03:46:54;;;;;;;3.42;2.45;;;15.20;50.90;;;;;;5079431;28;20199;-61
2023/04/26 03:49:20;;;;;;;5.53;2.78;;;15.20;50.80;;;;;;5078390;28;20177;-61
2023/04/26 03:51:46;;;;;;;3.45;2.30;;;15.20;50.80;;;;;;5079329;28;20186;-61
2023/04/26 03:54:11;;;;;;;3.10;2.67;;;15.20;50.70;;;;;;5078866;28;20584;-61
2023/04/26 03:56:38;;;;;;;2.97;2.67;;;15.20;50.70;;;;;;5078435;28;20202;-61
2023/04/26 03:59:04;;;;;;;2.53;2.33;;;15.20;50.70;;;;;;5078946;28;20644;-61
2023/04/26 04:01:30;;;;;;;4.18;3.00;;;15.20;50.70;;;;;;5079308;28;20185;-61
2023/04/26 04:03:56;;;;;;;2.63;2.40;;;15.20;50.70;;;;;;5078372;28;20647;-61
2023/04/26 04:06:21;;;;;;;3.85;2.60;;;15.10;50.80;;;;;;5078923;28;20268;-61
2023/04/26 04:08:47;;;;;;;3.17;2.60;;;15.10;50.80;;;;;;5079091;28;20640;-61
2023/04/26 04:11:12;;;;;;;3.78;2.88;;;15.10;50.80;;;;;;5077941;28;20629;-61
2023/04/26 04:13:38;;;;;;;3.13;2.70;;;15.10;50.70;;;;;;5078867;28;20276;-61
2023/04/26 04:16:04;;;;;;;3.47;2.65;;;15.10;50.70;;;;;;5079224;28;20186;-61
2023/04/26 04:18:30;;;;;;;3.90;2.83;;;15.20;50.80;;;;;;5078416;28;20749;-61
2023/04/26 04:20:55;;;;;;;5.80;3.03;;;15.10;50.70;;;;;;5078907;28;20170;-62
2023/04/26 04:23:21;;;;;;;2.97;2.70;;;15.10;50.90;;;;;;5078659;28;20217;-61
2023/04/26 04:25:47;;;;;;;2.63;2.42;;;15.00;50.80;;;;;;5077910;28;20218;-61
2023/04/26 04:28:13;;;;;;;4.63;2.63;;;15.10;50.90;;;;;;5078550;28;20178;-61
2023/04/26 04:30:39;;;;;;;2.72;2.42;;;15.00;50.90;;;;;;5078077;28;20185;-62
2023/04/26 04:33:04;;;;;;;3.22;2.92;;;15.00;50.80;;;;;;5078729;28;20261;-63
2023/04/26 04:35:32;;;;;;;3.55;2.70;;;15.10;50.90;;;;;;5079041;28;20206;-62
2023/04/26 04:37:59;;;;;;;3.13;2.53;;;15.00;50.90;;;;;;5078016;28;20359;-61
2023/04/26 04:40:25;;;;;;;3.08;2.58;;;15.10;50.90;;;;;;5078429;28;20659;-62
2023/04/26 04:42:50;;;;;;;3.10;2.55;;;15.10;51.00;;;;;;5078634;28;20664;-61
2023/04/26 04:45:16;;;;;;;3.20;2.60;;;15.00;50.80;;;;;;5077800;28;20210;-62
2023/04/26 04:47:45;;;;;;;3.00;2.42;;;15.10;50.90;;;;;;5078764;28;20228;-62
2023/04/26 04:50:10;;;;;;;2.95;2.65;;;15.00;51.00;;;;;;5078291;28;20577;-61
2023/04/26 04:52:36;;;;;;;4.35;2.60;;;15.00;51.00;;;;;;5077891;28;20174;-61
2023/04/26 04:55:02;;;;;;;3.05;2.25;;;15.00;51.00;;;;;;5075307;28;20175;-62
2023/04/26 04:57:28;;;;;;;2.60;2.40;;;15.00;51.10;;;;;;5075162;28;20225;-62
2023/04/26 04:59:54;;;;;;;4.88;2.35;;;15.00;51.70;;;;;;5074856;28;20240;-62
2023/04/26 05:02:19;;;;;;;2.80;2.60;;;15.10;51.70;;;;;;5075173;28;20538;-62
2023/04/26 05:04:45;;;;;;;3.33;2.65;;;15.10;51.40;;;;;;5075529;28;20683;-61
2023/04/26 05:07:11;;;;;;;3.90;2.10;;;15.20;51.10;;;;;;5074147;28;20628;-61
2023/04/26 05:09:37;;;;;;;2.78;2.17;;;15.20;50.90;;;;;;5075204;28;20171;-60
2023/04/26 05:12:02;;;;;;;2.50;2.30;;;15.30;50.80;;;;;;5075146;28;20178;-61
2023/04/26 05:14:28;;;;;;;3.78;2.10;;;15.30;50.70;;;;;;5074285;28;20261;-61
2023/04/26 05:16:54;;;;;;;2.50;2.22;;;15.30;50.50;;;;;;5075028;28;20202;-61
2023/04/26 05:19:19;;;;;;;3.63;2.40;;;15.30;50.60;;;;;;5074837;28;20167;-61
2023/04/26 05:21:45;;;;;;;3.20;2.45;;;15.30;50.70;;;;;;5074380;28;20179;-61
2023/04/26 05:24:10;;;;;;;2.85;2.38;;;15.30;50.70;;;;;;5074503;28;20301;-61
2023/04/26 05:26:36;;;;;;;2.97;2.70;;;15.30;50.80;;;;;;5075111;28;20182;-61
2023/04/26 05:29:02;;;;;;;2.58;2.33;;;15.20;50.90;;;;;;5074291;28;20187;-61
2023/04/26 05:31:27;;;;;;;3.47;2.30;;;15.20;50.90;;;;;;5074572;28;20642;-62
2023/04/26 05:33:53;;;;;;;3.50;2.47;;;15.20;51.10;;;;;;5074360;28;20545;-62
2023/04/26 05:36:18;;;;;;;3.38;2.38;;;15.40;51.20;;;;;;5074276;28;20663;-62
2023/04/26 05:38:44;;;;;;;2.90;2.58;;;15.30;51.00;;;;;;5074679;28;20171;-61
2023/04/26 05:41:09;;;;;;;2.88;2.40;;;15.30;50.90;;;;;;5073369;28;20538;-61
2023/04/26 05:43:35;;;;;;;3.90;2.53;;;15.20;50.90;;;;;;5074715;28;20178;-62
2023/04/26 05:46:01;;;;;;;3.90;2.17;;;15.20;51.00;;;;;;5075315;28;20175;-61
2023/04/26 05:48:26;;;;;;;4.55;2.20;;;15.20;51.20;;;;;;5073426;28;20579;-62
2023/04/26 05:50:52;;;;;;;4.18;2.67;;;15.20;51.20;;;;;;5074483;28;20636;-61
2023/04/26 05:53:18;;;;;;;2.70;2.33;;;15.20;51.60;;;;;;5074107;28;20175;-61
2023/04/26 05:55:44;;;;;;;2.55;2.10;;;15.20;51.50;;;;;;5073623;28;20542;-61
2023/04/26 05:58:09;;;;;;;2.45;2.10;;;15.20;51.60;;;;;;5073771;28;20214;-62
2023/04/26 06:00:36;;;;;;;4.38;2.22;;;15.30;51.30;;;;;;5074382;28;20178;-61
2023/04/26 06:03:01;;;;;;;2.45;2.00;;;15.30;51.40;;;;;;5073522;28;20174;-62
2023/04/26 06:05:27;;;;;;;3.63;2.20;;;15.50;51.10;;;;;;5073510;28;20181;-62
2023/04/26 06:07:52;;;;;;;2.50;2.15;;;15.60;51.00;;;;;;5074106;28;20690;-61
2023/04/26 06:10:18;;;;;;;2.50;1.88;;;15.70;50.80;;;;;;5072988;28;20661;-60
2023/04/26 06:12:43;;;;;;;4.60;2.40;;;15.90;50.70;;;;;;5073891;28;20641;-61
2023/04/26 06:15:09;;;;;;;2.70;1.90;;;15.90;50.50;;;;;;5073721;28;20541;-61
2023/04/26 06:17:35;;;;;;;3.08;2.42;;;16.00;50.40;;;;;;5073166;28;20642;-62
2023/04/26 06:20:00;;;;;;;2.17;1.98;;;16.10;50.50;;;;;;5073670;28;20270;-61
2023/04/26 06:22:26;;;;;;;3.22;1.88;;;16.20;50.40;;;;;;5073386;28;20210;-64
2023/04/26 06:24:51;;;;;;;1.98;1.70;;;16.30;50.30;;;;;;5072804;28;20269;-62
2023/04/26 06:27:17;;;;;;;2.97;1.70;;;16.50;50.20;;;;;;5073267;28;20174;-62
2023/04/26 06:29:44;;;;;;;3.00;2.10;;;16.70;50.00;;;;;;5073494;28;20209;-62
2023/04/26 06:32:09;;;;;;;1.67;1.50;;;16.90;49.90;;;;;;5072671;28;20182;-62
2023/04/26 06:34:36;;;;;;;2.03;1.55;;;17.10;49.60;;;;;;5073715;28;20193;-61
2023/04/26 06:37:01;;;;;;;1.75;1.40;;;17.40;49.20;;;;;;5073312;28;20206;-62
2023/04/26 06:39:27;;;;;;;2.55;1.80;;;17.50;49.20;;;;;;5072111;28;20182;-62
2023/04/26 06:41:52;;;;;;;2.13;1.73;;;17.60;49.20;;;;;;5073080;28;20182;-62
2023/04/26 06:44:18;;;;;;;2.25;1.58;;;17.70;49.20;;;;;;5072280;28;20170;-62
2023/04/26 06:46:43;;;;;;;2.25;1.70;;;17.70;49.20;;;;;;5073300;28;20182;-62
2023/04/26 06:49:10;;;;;;;4.20;1.70;;;17.70;49.40;;;;;;5073153;28;20178;-61
2023/04/26 06:51:35;;;;;;;2.95;1.83;;;17.80;49.70;;;;;;5072388;28;20935;-62
2023/04/26 06:54:01;;;;;;;4.07;2.13;;;17.90;49.80;;;;;;5073047;28;20217;-62
2023/04/26 06:56:26;;;;;;;2.70;1.70;;;17.90;50.90;;;;;;5072701;28;20584;-62
2023/04/26 06:59:03;;;;;;;4.20;1.48;;;17.80;50.40;;;;;;5072601;28;20185;-61
2023/04/26 07:01:28;;;;;;;5.18;1.85;;;17.80;50.60;;;;;;5072946;28;20204;-61
2023/04/26 07:03:57;;;;;;;4.72;1.60;;;17.70;51.00;;;;;;5073210;28;20170;-61
2023/04/26 07:06:25;;;;;;;5.00;1.92;;;17.70;51.20;;;;;;5072075;28;20208;-62
2023/04/26 07:08:51;;;;;;;3.95;1.60;;;17.60;51.70;;;;;;5073115;28;20699;-61
2023/04/26 07:11:16;;;;;;;3.55;1.50;;;17.60;51.70;;;;;;5072056;28;20179;-61
2023/04/26 07:13:42;;;;;;;3.95;1.40;;;17.60;51.80;;;;;;5071958;28;20182;-61
2023/04/26 07:16:07;;;;;;;3.83;1.73;;;17.50;51.70;;;;;;5072317;28;20228;-61
2023/04/26 07:18:33;;;;;;;2.67;1.65;;;17.50;51.80;;;;;;5072141;28;20225;-61
2023/04/26 07:20:59;;;;;;;2.83;1.33;;;17.50;51.80;;;;;;5071986;28;20178;-61
2023/04/26 07:23:24;;;;;;;3.85;1.60;;;17.40;51.90;;;;;;5072414;28;20524;-60
2023/04/26 07:25:50;;;;;;;2.53;1.30;;;17.40;52.00;;;;;;5072088;28;20719;-62
2023/04/26 07:28:15;;;;;;;3.38;1.80;;;17.30;52.10;;;;;;5080466;28;20178;-63
2023/04/26 07:30:41;;;;;;;4.32;1.50;;;17.30;52.00;;;;;;5083855;28;20470;-63
2023/04/26 07:33:06;;;;;;;3.10;1.50;;;17.30;52.10;;;;;;5092567;28;20171;-64
2023/04/26 07:35:34;;;;;;;1.88;1.33;;;17.30;52.20;;;;;;5075139;28;20622;-62
2023/04/26 07:38:00;;;;;;;2.55;1.50;;;17.30;52.10;;;;;;5072315;28;20224;-62
2023/04/26 07:40:25;;;;;;;4.78;1.52;;;17.30;52.10;;;;;;5072224;28;20700;-62
2023/04/26 07:42:52;;;;;;;4.63;1.52;;;17.40;52.10;;;;;;5078576;28;20266;-62
2023/04/26 07:45:18;;;;;;;3.22;1.27;;;17.40;52.00;;;;;;5092401;28;20176;-64
2023/04/26 07:47:43;;;;;;;1.73;1.25;;;17.30;52.60;;;;;;5092221;28;20185;-62
2023/04/26 07:50:10;;;;;;;2.58;1.50;;;17.30;51.90;;;;;;5092418;28;20234;-62
2023/04/26 07:52:35;;;;;;;1.38;1.20;;;17.20;52.00;;;;;;5075611;28;20185;-62
2023/04/26 07:55:01;;;;;;;1.70;1.60;;;17.20;52.10;;;;;;5071950;28;20174;-63
2023/04/26 07:57:26;;;;;;;2.30;1.52;;;17.10;52.10;;;;;;5072136;28;20210;-66
2023/04/26 07:59:52;;;;;;;2.50;1.33;;;17.10;52.20;;;;;;5071175;28;20166;-62
2023/04/26 08:02:17;;;;;;;3.03;1.52;;;17.10;52.20;;;;;;5071277;28;20179;-61
2023/04/26 08:04:48;;;;;;;2.50;1.35;;;17.20;52.20;;;;;;5072309;28;20215;-62
2023/04/26 08:07:14;;;;;;;2.63;1.60;;;17.20;52.20;;;;;;5082368;28;20178;-62
2023/04/26 08:09:39;;;;;;;1.40;1.30;;;17.20;52.20;;;;;;5074925;28;20169;-61
2023/04/26 08:12:05;;;;;;;2.22;1.30;;;17.20;52.20;;;;;;5092145;28;20185;-61
2023/04/26 08:14:32;;;;;;;2.97;1.50;;;17.20;52.20;;;;;;5092176;28;20174;-61
2023/04/26 08:16:57;;;;;;;2.67;1.27;;;17.20;52.30;;;;;;5091374;28;20573;-60
2023/04/26 08:19:25;;;;;;;9.45;1.95;;;17.10;52.30;;;;;;5092190;28;20177;-61
2023/04/26 08:21:51;;;;;;;2.75;1.50;;;17.10;52.40;;;;;;5092635;28;20177;-60
2023/04/26 08:24:16;;;;;;;3.05;1.63;;;17.10;52.50;;;;;;5091334;28;20221;-61
2023/04/26 08:26:42;;;;;;;2.80;1.13;;;17.10;52.60;;;;;;5092603;28;20169;-60
2023/04/26 08:29:07;;;;;;;2.72;1.30;;;17.10;52.60;;;;;;5093492;28;20177;-61
2023/04/26 08:31:34;;;;;;;4.78;1.30;;;17.00;52.70;;;;;;5095617;28;20550;-62
2023/04/26 08:33:59;;;;;;;3.63;1.40;;;17.00;52.80;;;;;;5096018;28;20629;-62
2023/04/26 08:36:25;;;;;;;2.80;1.30;;;17.00;52.90;;;;;;5095593;28;20264;-61
2023/04/26 08:38:50;;;;;;;3.38;1.27;;;17.00;52.90;;;;;;5095218;28;20272;-61
2023/04/26 08:41:16;;;;;;;3.90;1.77;;;17.00;53.00;;;;;;5095817;28;20288;-61
2023/04/26 08:43:41;;;;;;;2.58;1.35;;;16.90;53.00;;;;;;5094930;28;20174;-61
2023/04/26 08:46:08;;;;;;;2.78;1.42;;;16.90;53.00;;;;;;5093851;28;20168;-61
2023/04/26 08:48:34;;;;;;;1.48;1.00;;;16.90;53.00;;;;;;5094754;28;20178;-61
2023/04/26 08:50:59;;;;;;;8.07;1.73;;;16.90;53.10;;;;;;5093810;28;20195;-61
2023/04/26 08:53:25;;;;;;;2.45;1.40;;;16.90;53.20;;;;;;5094402;28;20257;-63
2023/04/26 08:55:50;;;;;;;3.30;1.48;;;16.90;53.30;;;;;;5095880;28;20262;-62
2023/04/26 08:58:20;;;;;;;3.33;1.17;;;16.90;53.20;;;;;;5093031;28;20227;-62
2023/04/26 09:00:45;;;;;;;1.90;1.30;;;16.90;53.20;;;;;;5094259;28;20542;-62
2023/04/26 09:03:11;;;;;;;2.75;1.20;;;16.90;53.20;;;;;;5095244;28;20182;-62
2023/04/26 09:05:39;;;;;;;2.25;1.30;;;16.80;53.10;;;;;;5094878;28;20170;-62
2023/04/26 09:08:05;;;;;;;3.20;1.40;;;16.80;53.20;;;;;;5095188;28;20647;-61
2023/04/26 09:10:31;;;;;;;2.35;1.55;;;16.70;53.20;;;;;;5094741;28;20174;-62
2023/04/26 09:12:56;;;;;;;3.28;1.63;;;16.70;53.30;;;;;;5087011;28;20177;-61
2023/04/26 09:15:22;;;;;;;1.80;1.10;;;16.70;53.30;;;;;;5083418;28;20174;-61
2023/04/26 09:17:50;;;;;;;3.83;1.30;;;16.60;53.20;;;;;;5088497;28;20214;-61
2023/04/26 09:20:22;;;;;;;2.85;1.38;;;16.60;53.30;;;;;;5094312;28;20174;-62
2023/04/26 09:22:49;;;;;;;2.35;1.40;;;16.60;53.30;;;;;;5095339;28;20197;-61
2023/04/26 09:25:16;;;;;;;9.85;1.70;;;16.60;53.30;;;;;;5093641;28;20245;-61
2023/04/26 09:27:42;;;;;;;3.33;1.27;;;16.60;53.20;;;;;;5094266;28;20568;-61
2023/04/26 09:30:16;;;;;;;2.65;1.30;;;16.60;53.30;;;;;;5094959;28;20170;-62
2023/04/26 09:33:08;;;;;;;3.05;1.20;;;16.60;53.30;;;;;;5095071;28;20186;-62
2023/04/26 09:35:38;;;;;;;3.22;1.15;;;16.60;53.20;;;;;;5094796;28;20692;-61
2023/04/26 09:38:13;;;;;;;1.58;1.10;;;16.70;53.30;;;;;;5094812;28;20321;-62
2023/04/26 09:40:46;;;;;;;2.60;1.30;;;16.70;53.20;;;;;;5093450;28;20265;-61
2023/04/26 09:43:16;;;;;;;1.83;1.20;;;16.70;53.10;;;;;;5094985;28;20189;-62
2023/04/26 09:45:55;;;;;;;2.10;1.20;;;16.70;53.10;;;;;;5094921;28;20185;-62
2023/04/26 09:48:25;;;;;;;1.85;1.05;;;16.70;53.00;;;;;;5094018;28;20594;-62
2023/04/26 09:50:55;;;;;;;2.65;1.23;;;16.90;52.80;;;;;;5094904;28;20255;-62
2023/04/26 09:53:26;;;;;;;2.35;1.13;;;16.90;52.60;;;;;;5094097;28;20543;-62
2023/04/26 09:55:53;;;;;;;2.35;1.33;;;16.90;52.50;;;;;;5093928;28;20180;-62
2023/04/26 09:58:19;;;;;;;2.03;0.90;;;16.80;52.60;;;;;;5094413;28;20335;-63
2023/04/26 10:00:44;;;;;;;3.05;1.33;;;16.80;52.60;;;;;;5094482;28;20272;-62
2023/04/26 10:03:10;;;;;;;1.08;0.90;;;16.80;52.70;;;;;;5092248;28;20182;-63
2023/04/26 10:05:36;;;;;;;1.58;1.08;;;16.70;53.40;;;;;;5093322;28;20183;-63
2023/04/26 10:08:02;;;;;;;1.58;1.15;;;16.70;52.90;;;;;;5094314;28;20177;-62
2023/04/26 10:10:29;;;;;;;1.92;1.33;;;16.60;53.00;;;;;;5093174;28;20180;-62
2023/04/26 10:12:54;;;;;;;1.90;1.20;;;16.60;53.00;;;;;;5093009;28;20729;-62
2023/04/26 10:15:20;;;;;;;1.10;1.00;;;16.50;53.00;;;;;;5092034;28;20260;-62
2023/04/26 10:17:45;;;;;;;2.28;1.20;;;16.60;53.10;;;;;;5093073;28;20217;-62
2023/04/26 10:20:12;;;;;;;2.40;1.00;;;16.60;53.20;;;;;;5093957;28;20264;-62
2023/04/26 10:22:42;;;;;;;2.55;1.23;;;16.50;53.10;;;;;;5093404;28;20209;-62
2023/04/26 10:25:08;;;;;;;1.63;1.05;;;16.50;52.80;;;;;;5092472;28;20589;-62
2023/04/26 10:27:45;;;;;;;1.45;1.00;;;16.60;53.10;;;;;;5092974;28;20185;-62
2023/04/26 10:30:15;;;;;;;1.35;1.20;;;16.50;53.10;;;;;;5092952;28;20219;-62
2023/04/26 10:33:07;;;;;;;2.92;1.20;;;16.60;52.90;;;;;;5093754;28;20178;-62
2023/04/26 10:35:36;;;;;;;2.20;1.40;;;16.60;52.70;;;;;;5092001;28;20182;-63
2023/04/26 10:38:02;;;;;;;3.20;1.30;;;16.60;52.60;;;;;;5093157;28;20217;-62
2023/04/26 10:40:30;;;;;;;1.80;1.10;;;16.60;52.70;;;;;;5093620;28;20523;-62
2023/04/26 10:43:07;;;;;;;2.47;1.20;;;16.60;52.60;;;;;;5093788;28;20186;-62
2023/04/26 10:45:33;;;;;;;2.70;1.20;;;16.60;52.40;;;;;;5092800;28;20174;-62
2023/04/26 10:48:31;;;;;;;2.30;1.65;;;16.60;52.40;;;;;;5093807;28;20260;-63
2023/04/26 10:51:00;;;;;;;2.08;1.38;;;16.60;52.90;;;;;;5089869;28;20212;-62
2023/04/26 10:53:29;;;;;;;1.98;1.30;;;16.60;52.20;;;;;;5092200;28;20208;-62
2023/04/26 10:55:54;;;;;;;1.98;1.20;;;16.70;52.20;;;;;;5093334;28;20545;-62
2023/04/26 10:58:27;;;;;;;1.58;1.27;;;16.70;52.20;;;;;;5091015;28;20210;-63
2023/04/26 11:01:10;;;;;;;1.73;1.33;;;16.60;52.10;;;;;;5093494;28;20193;-62
2023/04/26 11:03:36;;;;;;;1.80;1.23;;;16.70;52.10;;;;;;5093320;28;20192;-63
2023/04/26 11:06:08;;;;;;;1.25;1.15;;;16.70;52.20;;;;;;5092595;28;20668;-62
2023/04/26 11:08:35;;;;;;;1.35;1.15;;;16.60;52.10;;;;;;5093218;28;20178;-62
2023/04/26 11:11:01;;;;;;;3.70;1.52;;;16.60;52.30;;;;;;5093189;28;20656;-62
2023/04/26 11:13:29;;;;;;;2.80;1.30;;;16.60;52.40;;;;;;5092402;28;20212;-62
2023/04/26 11:15:59;;;;;;;2.05;1.13;;;16.60;52.20;;;;;;5093196;28;20178;-62
2023/04/26 11:18:24;;;;;;;2.63;1.40;;;16.60;52.30;;;;;;5092714;28;20209;-62
2023/04/26 11:20:50;;;;;;;1.35;1.25;;;16.60;52.40;;;;;;5092309;28;20260;-61
2023/04/26 11:23:17;;;;;;;1.15;1.05;;;16.50;52.30;;;;;;5091678;28;20258;-62
2023/04/26 11:25:43;;;;;;;1.20;1.00;;;16.60;52.30;;;;;;5092109;28;20282;-62
2023/04/26 11:28:08;;;;;;;2.47;1.13;;;16.60;52.10;;;;;;5091564;28;20170;-62
2023/04/26 11:30:34;;;;;;;3.13;1.65;;;16.70;52.20;;;;;;5093003;28;20169;-63
2023/04/26 11:33:00;;;;;;;1.83;1.27;;;16.70;52.00;;;;;;5092303;28;20170;-63
2023/04/26 11:35:28;;;;;;;1.80;1.10;;;16.70;52.00;;;;;;5092574;28;20241;-63
2023/04/26 11:37:53;;;;;;;2.33;1.23;;;16.80;52.00;;;;;;5091550;28;20675;-62
2023/04/26 11:40:19;;;;;;;1.13;1.08;;;16.90;51.80;;;;;;5090474;28;20213;-62
2023/04/26 11:42:44;;;;;;;1.92;1.30;;;16.90;51.60;;;;;;5092912;28;20184;-62
2023/04/26 11:45:10;;;;;;;2.20;1.30;;;16.90;51.60;;;;;;5092573;28;20529;-63
2023/04/26 11:47:36;;;;;;;1.23;1.13;;;17.00;51.60;;;;;;5092042;28;20668;-62
2023/04/26 11:50:02;;;;;;;1.05;0.90;;;17.00;51.60;;;;;;5092690;28;20714;-62
2023/04/26 11:52:28;;;;;;;1.13;0.90;;;17.00;51.50;;;;;;5091378;28;20162;-62
2023/04/26 11:55:06;;;;;;;1.20;1.10;;;17.10;51.60;;;;;;5092099;28;20175;-62
2023/04/26 11:57:33;;;;;;;1.63;1.30;;;17.10;51.50;;;;;;5092679;28;20233;-62
2023/04/26 12:00:10;;;;;;;2.08;1.33;;;17.20;51.40;;;;;;5092554;28;20174;-62
2023/04/26 12:02:35;;;;;;;1.40;1.10;;;17.20;51.20;;;;;;5091789;28;20203;-62
2023/04/26 12:05:02;;;;;;;1.95;1.20;;;17.20;51.20;;;;;;5095461;28;20166;-62
2023/04/26 12:07:34;;;;;;;1.38;1.05;;;17.30;51.10;;;;;;5096590;28;20189;-62
2023/04/26 12:10:13;;;;;;;1.85;1.25;;;17.30;51.10;;;;;;5096016;28;20195;-62
2023/04/26 12:12:44;;;;;;;1.77;1.33;;;17.30;51.10;;;;;;5096598;28;20710;-62
2023/04/26 12:15:10;;;;;;;1.38;1.00;;;17.40;51.10;;;;;;5095554;28;20177;-62
2023/04/26 12:17:36;;;;;;;0.93;0.90;;;17.40;51.10;;;;;;5096515;28;20579;-62
2023/04/26 12:20:09;;;;;;;1.17;1.10;;;17.40;51.10;;;;;;5096384;28;20192;-62
2023/04/26 12:22:34;;;;;;;2.05;1.10;;;17.50;51.20;;;;;;5095828;28;20178;-62
2023/04/26 12:25:05;;;;;;;1.35;1.15;;;17.50;51.00;;;;;;5096110;28;20637;-62
2023/04/26 12:27:30;;;;;;;2.22;1.20;;;17.40;51.10;;;;;;5096279;28;20664;-62
2023/04/26 12:29:56;;;;;;;1.55;1.15;;;17.40;51.30;;;;;;5095700;28;20177;-63
2023/04/26 12:32:22;;;;;;;1.20;1.10;;;17.30;51.30;;;;;;5095966;28;20197;-63
2023/04/26 12:34:48;;;;;;;2.33;1.08;;;17.30;51.40;;;;;;5096218;28;20197;-62
2023/04/26 12:37:13;;;;;;;2.45;1.40;;;17.20;51.50;;;;;;5095051;28;20609;-62
2023/04/26 12:39:39;;;;;;;1.15;1.05;;;17.10;51.60;;;;;;5095996;28;20648;-62
2023/04/26 12:42:05;;;;;;;1.85;1.10;;;17.00;51.70;;;;;;5095867;28;20197;-65
2023/04/26 12:44:30;;;;;;;1.77;1.27;;;17.00;51.80;;;;;;5095512;28;20210;-63